Chestnut Mound, Tennessee
Current Conditions -  °F | °C
As of 1:35 PM on Thursday 27 Nov 2014 (Local Time) from KSRB Reporting Station
Broken Clouds Broken Clouds  
Wind Chill: -3°   Ceiling: 2300
Heat Index:   Visibility: 10mi
Dew Point: -3°   Wind: 8mph
Humidity: 75%   Direction: 320°NW
Pressure: 30.35"   Gusts: NA
Location:  36.2°N, 85.83°W
Report Text: KSRB 271935Z AUTO 32007KT 300V360 10SM BKN023 BKN028 01/M03 A3035 RMK
Loading
Personal Weather Stations






























Interactive Weather Map New forecast layout! Learn more

10-Day Weather Forecast

Advertisements
Track Severe Weather on mobile